Hurlburt Field, FL (32544)

11:42 PM CDT on July 27, 2016 (GMT -0500)
Cobia Bay | | Change Station

Elev 13 ft 30.41 °N, 86.74 °W | Updated 17 seconds ago

Clear
Clear
78.1 °F
Feels Like 81 °F
N
0.0
Wind Variable Wind from WNW
Gusts 0.0 mph

Today
High -- | Low -- °F
--% Chance of Precip.
Yesterday
High -- | Low -- °F
Precip. -- in
Pressure 30.04 in
Visibility 10.0 miles
Clouds Clear
Heat Index 81 °F
Dew Point 76 °F
Humidity 93%
Rainfall in
Snow Depth Not available.
6:02 AM 7:43 PM
Last Quarter, 36% visible
METAR KHRT 280358Z 30004KT 10SM CLR 28/23 A3003 RMK AO2A SLP171 T02790233 $
Pressure 30.04 in
Visibility 10.0 miles
Clouds Clear
Heat Index 81 °F
Dew Point 76 °F
Humidity 93%
Rainfall in
Snow Depth Not available.
6:02 AM 7:43 PM
Last Quarter, 36% visible
METAR KHRT 280358Z 30004KT 10SM CLR 28/23 A3003 RMK AO2A SLP171 T02790233 $

10-Day Weather Forecast

Almanac

Astronomy

Jul. 27, 2016 Rise Set
Actual Time
Civil Twilight
Nautical Twilight
Astronomical Twilight
Moon
Length of Visible Light
Length of Day
Tomorrow will be .
, % of the Moon is Illuminated

Today's Extremes

State Highs State Lows

Community

WunderPhotos

Upload Photos

1,928,061 photos uploaded!

WunderBlog® & News

Nearby

Air Quality

  Air Quality AQ Index Pollutant
Not available.

Snow Depth

Station Depth Elevation

Earthquake Activity

City Distance Mag. Time & Date
Minimum magnitude displayed is 2.5.

Coastal Water Temperatures

Place Temperature

Stations

Nearby Weather Stations

Station Location Temp. Windchill Dew Point Humidity Wind Precip. Elev Updated Type
                   

Watches & Warnings

There are currently no watches in effect.